createdAt,value
2024-03-02T00:01:08.753Z,72.02
2024-03-02T00:03:36.710Z,72.25
2024-03-02T00:06:04.854Z,72.41
2024-03-02T00:08:32.747Z,72.15
2024-03-02T00:11:01.579Z,72.16
2024-03-02T00:13:29.436Z,72.22
2024-03-02T00:15:59.275Z,72.41
2024-03-02T00:18:28.215Z,72.30
2024-03-02T00:20:57.892Z,71.94
2024-03-02T00:23:26.955Z,71.78
2024-03-02T00:25:56.850Z,72.36
2024-03-02T00:28:26.070Z,72.08
2024-03-02T00:31:01.069Z,72.13
2024-03-02T00:33:30.618Z,72.22
2024-03-02T00:35:58.589Z,72.21
2024-03-02T00:38:26.525Z,72.76
2024-03-02T00:40:54.604Z,72.67
2024-03-02T00:43:46.023Z,72.89
2024-03-02T00:46:18.764Z,72.58
2024-03-02T00:48:57.371Z,73.04
2024-03-02T00:51:26.725Z,73.19
2024-03-02T00:53:57.018Z,73.02
2024-03-02T00:56:25.230Z,73.27
2024-03-02T00:58:53.584Z,73.65
2024-03-02T01:01:23.763Z,73.56
2024-03-02T01:03:52.440Z,73.37
2024-03-02T01:06:20.573Z,73.23
2024-03-02T01:08:52.046Z,73.67
2024-03-02T01:11:20.320Z,73.43
2024-03-02T01:13:48.277Z,72.97
2024-03-02T01:16:16.698Z,73.42
2024-03-02T01:18:46.222Z,73.43
2024-03-02T01:21:14.192Z,73.71
2024-03-02T01:23:42.139Z,73.69
2024-03-02T01:26:09.843Z,73.42
2024-03-02T01:28:37.653Z,73.80
2024-03-02T01:31:05.740Z,73.52
2024-03-02T01:33:33.598Z,74.07
2024-03-02T01:36:03.017Z,73.96
2024-03-02T01:38:30.797Z,73.91
2024-03-02T01:40:59.686Z,73.92
2024-03-02T01:43:27.588Z,74.23
2024-03-02T01:45:55.428Z,74.47
2024-03-02T01:48:23.263Z,74.21
2024-03-02T01:50:50.971Z,74.20
2024-03-02T01:53:20.118Z,74.25
2024-03-02T01:55:47.827Z,74.32
2024-03-02T01:58:15.679Z,74.42
2024-03-02T02:00:43.542Z,74.47
2024-03-02T02:03:11.629Z,74.36
2024-03-02T02:05:39.362Z,74.37
2024-03-02T02:08:07.559Z,74.08
2024-03-02T02:10:37.060Z,74.57
2024-03-02T02:13:05.128Z,74.72
2024-03-02T02:15:35.872Z,74.39
2024-03-02T02:18:04.911Z,74.47
2024-03-02T02:20:32.752Z,74.40
2024-03-02T02:23:02.800Z,74.50
2024-03-02T02:25:31.117Z,74.19
2024-03-02T02:27:59.907Z,74.02
2024-03-02T02:30:29.721Z,74.01
2024-03-02T02:32:57.611Z,74.42
2024-03-02T02:35:26.222Z,74.14
2024-03-02T02:37:54.607Z,74.14
2024-03-02T02:40:23.989Z,74.51
2024-03-02T02:42:53.205Z,74.55
2024-03-02T02:45:21.275Z,74.45
2024-03-02T02:47:49.097Z,74.19
2024-03-02T02:50:16.892Z,74.86
2024-03-02T02:52:44.914Z,74.51
2024-03-02T02:55:14.138Z,74.51
2024-03-02T02:57:45.100Z,74.57
2024-03-02T03:00:17.553Z,74.77
2024-03-02T03:02:48.452Z,74.79
2024-03-02T03:05:17.105Z,74.94
2024-03-02T03:07:46.341Z,74.68
2024-03-02T03:10:15.156Z,74.59
2024-03-02T03:12:45.768Z,74.43
2024-03-02T03:15:14.150Z,74.63
2024-03-02T03:17:42.564Z,74.96
2024-03-02T03:20:11.836Z,74.41
2024-03-02T03:22:40.086Z,74.52
2024-03-02T03:25:09.592Z,74.73
2024-03-02T03:27:38.059Z,74.91
2024-03-02T03:30:08.584Z,74.73
2024-03-02T03:32:36.562Z,75.14
2024-03-02T03:35:05.200Z,74.92
2024-03-02T03:37:34.888Z,75.25
2024-03-02T03:40:03.820Z,76.13
2024-03-02T03:42:31.649Z,75.51
2024-03-02T03:44:59.427Z,75.86
2024-03-02T03:47:28.877Z,75.86
2024-03-02T03:49:56.727Z,75.80
2024-03-02T03:52:24.516Z,75.78
2024-03-02T03:54:52.422Z,75.96
2024-03-02T03:57:20.355Z,75.97
2024-03-02T03:59:48.464Z,75.66
2024-03-02T04:02:16.290Z,75.91
2024-03-02T04:04:45.739Z,75.84
2024-03-02T04:07:13.981Z,75.78
2024-03-02T04:09:41.911Z,76.30
2024-03-02T04:12:09.735Z,76.27
2024-03-02T04:14:38.870Z,76.64
2024-03-02T04:17:07.243Z,76.44
2024-03-02T04:19:35.568Z,76.48
2024-03-02T04:22:12.437Z,76.64
2024-03-02T04:24:46.441Z,76.75
2024-03-02T04:27:14.334Z,76.55
2024-03-02T04:29:42.066Z,76.72
2024-03-02T04:32:09.912Z,76.66
2024-03-02T04:34:37.730Z,76.65
2024-03-02T04:37:07.275Z,76.93
2024-03-02T04:39:37.064Z,77.01
2024-03-02T04:42:05.263Z,76.96
2024-03-02T04:44:33.097Z,76.43
2024-03-02T04:47:00.848Z,76.23
2024-03-02T04:49:28.763Z,76.23
2024-03-02T04:51:56.633Z,75.82
2024-03-02T04:54:26.342Z,75.82
2024-03-02T04:56:53.132Z,75.93
2024-03-02T04:59:21.057Z,75.82
2024-03-02T05:01:49.374Z,75.52
2024-03-02T05:04:17.155Z,75.85
2024-03-02T05:06:44.990Z,75.87
2024-03-02T05:09:12.790Z,75.62
2024-03-02T05:12:04.070Z,75.63
2024-03-02T05:14:31.775Z,75.73
2024-03-02T05:16:59.520Z,76.07
2024-03-02T05:19:27.322Z,75.90
2024-03-02T05:21:55.084Z,76.53
2024-03-02T05:24:23.127Z,76.41
2024-03-02T05:26:52.224Z,76.57
2024-03-02T05:29:19.977Z,76.86
2024-03-02T05:31:47.724Z,77.16
2024-03-02T05:34:15.620Z,76.94
2024-03-02T05:36:43.438Z,76.98
2024-03-02T05:39:11.513Z,77.49
2024-03-02T05:41:40.149Z,77.32
2024-03-02T05:44:09.438Z,77.39
2024-03-02T05:46:38.679Z,77.29
2024-03-02T05:49:09.001Z,77.08
2024-03-02T05:51:36.864Z,77.18
2024-03-02T05:54:05.175Z,77.26
2024-03-02T05:56:33.273Z,77.42
2024-03-02T05:59:13.382Z,77.48
2024-03-02T06:01:42.893Z,77.40
2024-03-02T06:04:11.725Z,77.47
2024-03-02T06:06:39.990Z,77.47
2024-03-02T06:09:09.393Z,77.63
2024-03-02T06:11:37.488Z,77.49
2024-03-02T06:14:05.628Z,77.88
2024-03-02T06:16:33.939Z,77.94
2024-03-02T06:19:03.579Z,78.06
2024-03-02T06:21:31.501Z,78.12
2024-03-02T06:23:59.249Z,78.26
2024-03-02T06:26:26.972Z,78.23
2024-03-02T06:28:54.827Z,78.37
2024-03-02T06:31:22.553Z,78.59
2024-03-02T06:33:50.518Z,78.86
2024-03-02T06:36:19.717Z,79.07
2024-03-02T06:38:47.393Z,78.89
2024-03-02T06:41:15.117Z,78.90
2024-03-02T06:43:42.895Z,78.78
2024-03-02T06:46:10.859Z,78.84
2024-03-02T06:48:38.775Z,78.70
2024-03-02T06:51:06.608Z,79.01
2024-03-02T06:53:35.821Z,79.19
2024-03-02T06:56:03.637Z,79.23
2024-03-02T06:58:31.388Z,79.31
2024-03-02T07:00:59.171Z,79.12
2024-03-02T07:03:27.039Z,79.21
2024-03-02T07:05:54.832Z,79.01
2024-03-02T07:08:22.569Z,79.45
2024-03-02T07:10:51.722Z,79.69
2024-03-02T07:13:19.498Z,79.52
2024-03-02T07:16:07.242Z,79.58
2024-03-02T07:18:36.137Z,79.45
2024-03-02T07:21:03.973Z,79.57
2024-03-02T07:23:32.722Z,79.69
2024-03-02T07:28:33.595Z,79.69
2024-03-02T07:31:02.033Z,79.87
2024-03-02T07:33:29.890Z,79.87
2024-03-02T07:35:57.882Z,80.02
2024-03-02T07:38:25.757Z,80.42
2024-03-02T07:40:54.089Z,80.51
2024-03-02T07:43:23.535Z,80.44
2024-03-02T07:45:51.430Z,80.54
2024-03-02T07:48:19.248Z,80.62
2024-03-02T07:50:47.107Z,80.83
2024-03-02T07:53:15.402Z,80.25
2024-03-02T07:55:43.397Z,80.15
2024-03-02T07:58:12.678Z,80.45
2024-03-02T08:00:42.624Z,80.49
2024-03-02T08:03:12.451Z,80.32
2024-03-02T08:05:40.822Z,80.19
2024-03-02T08:08:08.807Z,80.26
2024-03-02T08:10:36.955Z,79.76
2024-03-02T08:13:04.964Z,80.01
2024-03-02T08:15:34.259Z,80.09
2024-03-02T08:18:03.554Z,79.46
2024-03-02T08:20:32.625Z,78.63
2024-03-02T08:23:00.641Z,78.96
2024-03-02T08:25:28.532Z,78.96
2024-03-02T08:27:56.390Z,78.03
2024-03-02T08:30:24.209Z,77.78
2024-03-02T08:32:51.986Z,78.09
2024-03-02T08:35:23.447Z,78.43
2024-03-02T08:37:51.291Z,78.12
2024-03-02T08:40:19.564Z,77.84
2024-03-02T08:42:47.947Z,78.64
2024-03-02T08:45:15.849Z,77.78
2024-03-02T08:47:43.638Z,77.32
2024-03-02T08:50:11.408Z,77.43
2024-03-02T08:52:40.664Z,77.36
2024-03-02T08:55:09.257Z,77.30
2024-03-02T08:57:37.095Z,77.03
2024-03-02T09:00:06.301Z,75.17
2024-03-02T09:02:34.067Z,74.34
2024-03-02T09:05:01.915Z,74.34
2024-03-02T09:07:29.936Z,74.33
2024-03-02T09:10:01.882Z,73.78
2024-03-02T09:12:29.683Z,74.34
2024-03-02T09:14:57.458Z,74.91
2024-03-02T09:17:25.420Z,74.15
2024-03-02T09:19:53.985Z,73.27
2024-03-02T09:22:21.828Z,73.56
2024-03-02T09:24:49.670Z,73.94
2024-03-02T09:27:18.963Z,73.14
2024-03-02T09:29:46.913Z,73.39
2024-03-02T09:32:15.681Z,72.01
2024-03-02T09:34:44.407Z,71.73
2024-03-02T09:37:12.186Z,71.70
2024-03-02T09:39:39.908Z,72.07
2024-03-02T09:42:08.330Z,72.56
2024-03-02T09:44:37.501Z,72.30
2024-03-02T09:47:05.722Z,72.53
2024-03-02T09:49:33.580Z,72.55
2024-03-02T09:52:01.463Z,72.21
2024-03-02T09:54:29.905Z,72.10
2024-03-02T09:56:57.650Z,72.52
2024-03-02T09:59:25.416Z,72.85
2024-03-02T10:02:01.632Z,72.28
2024-03-02T10:04:30.414Z,72.23
2024-03-02T10:07:22.175Z,72.34
2024-03-02T10:09:50.844Z,70.81
2024-03-02T10:12:19.740Z,69.95
2024-03-02T10:14:49.723Z,69.81
2024-03-02T10:17:20.089Z,67.15
2024-03-02T10:19:48.645Z,65.44
2024-03-02T10:22:16.536Z,64.56
2024-03-02T10:24:46.275Z,65.34
2024-03-02T10:27:18.380Z,66.37
2024-03-02T10:29:48.511Z,65.48
2024-03-02T10:32:16.922Z,65.51
2024-03-02T10:34:48.315Z,64.68
2024-03-02T10:37:18.230Z,63.18
2024-03-02T10:39:48.626Z,63.62
2024-03-02T10:42:17.035Z,64.46
2024-03-02T10:44:45.383Z,63.09
2024-03-02T10:47:14.604Z,62.44
2024-03-02T10:49:44.273Z,61.40
2024-03-02T10:52:13.394Z,61.42
2024-03-02T10:54:41.798Z,61.22
2024-03-02T10:57:11.602Z,61.76
2024-03-02T10:59:41.075Z,61.83
2024-03-02T11:02:09.607Z,62.25
2024-03-02T11:04:37.677Z,62.33
2024-03-02T11:07:07.354Z,61.37
2024-03-02T11:09:41.360Z,62.63
2024-03-02T11:12:15.699Z,61.80
2024-03-02T11:14:45.385Z,61.52
2024-03-02T11:17:13.919Z,61.33
2024-03-02T11:19:42.029Z,61.21
2024-03-02T11:22:10.540Z,60.10
2024-03-02T11:24:39.753Z,60.39
2024-03-02T11:27:08.818Z,60.29
2024-03-02T11:29:46.785Z,59.74
2024-03-02T11:32:19.559Z,60.24
2024-03-02T11:34:49.232Z,60.34
2024-03-02T11:37:17.207Z,59.24
2024-03-02T11:39:47.627Z,60.28
2024-03-02T11:44:15.169Z,59.70
2024-03-02T11:46:43.022Z,59.68
2024-03-02T11:49:11.017Z,60.10
2024-03-02T11:51:41.135Z,58.27
2024-03-02T11:54:10.946Z,58.87
2024-03-02T11:56:38.619Z,58.01
2024-03-02T11:59:06.966Z,58.54
2024-03-02T12:01:38.329Z,59.26
2024-03-02T12:04:07.536Z,57.86
2024-03-02T12:06:35.355Z,57.43
2024-03-02T12:09:03.648Z,57.40
2024-03-02T12:11:31.429Z,57.46
2024-03-02T12:14:00.355Z,58.02
2024-03-02T12:16:28.114Z,57.15
2024-03-02T12:18:58.249Z,57.18
2024-03-02T12:21:26.090Z,56.53
2024-03-02T12:23:53.954Z,55.73
2024-03-02T12:26:22.146Z,55.21
2024-03-02T12:28:50.030Z,55.39
2024-03-02T12:31:17.920Z,56.50
2024-03-02T12:33:45.712Z,56.17
2024-03-02T12:38:39.606Z,54.91
2024-03-02T12:43:15.899Z,55.75
2024-03-02T12:45:43.759Z,56.06
2024-03-02T12:48:11.537Z,54.86
2024-03-02T12:50:39.318Z,54.81
2024-03-02T12:53:07.051Z,54.96
2024-03-02T12:57:33.386Z,54.44
2024-03-02T13:00:01.563Z,54.32
2024-03-02T13:02:33.016Z,54.88
2024-03-02T13:05:00.780Z,53.86
2024-03-02T13:07:29.004Z,53.77
2024-03-02T13:09:57.772Z,53.74
2024-03-02T13:12:26.667Z,52.84
2024-03-02T13:14:56.045Z,53.43
2024-03-02T14:15:07.098Z,59.03
2024-03-02T14:17:34.874Z,57.83
2024-03-02T14:20:06.768Z,57.32
2024-03-02T14:23:37.381Z,56.93
2024-03-02T14:26:05.523Z,57.27
2024-03-02T14:28:47.870Z,55.20
2024-03-02T14:31:18.962Z,55.16
2024-03-02T14:33:46.803Z,55.00
2024-03-02T14:36:14.838Z,55.20
2024-03-02T14:38:44.456Z,55.14
2024-03-02T14:41:12.294Z,54.86
2024-03-02T14:43:40.052Z,54.82
2024-03-02T14:46:09.479Z,56.38
2024-03-02T14:48:37.479Z,53.75
2024-03-02T14:51:05.730Z,54.28
2024-03-02T14:53:33.490Z,53.33
2024-03-02T14:56:02.674Z,52.95
2024-03-02T14:58:30.345Z,53.15
2024-03-02T15:00:58.400Z,52.56
2024-03-02T15:03:26.275Z,51.71
2024-03-02T15:05:54.892Z,50.78
2024-03-02T15:08:22.645Z,51.45
2024-03-02T15:10:50.428Z,51.79
2024-03-02T15:13:19.581Z,50.88
2024-03-02T15:15:47.494Z,51.17
2024-03-02T15:18:15.321Z,51.51
2024-03-02T15:33:06.237Z,52.06
2024-03-02T15:35:34.266Z,52.06
2024-03-02T15:38:02.031Z,52.10
2024-03-02T15:40:29.803Z,52.75
2024-03-02T15:42:57.632Z,53.18
2024-03-02T15:45:26.043Z,53.57
2024-03-02T15:47:53.806Z,53.17
2024-03-02T15:50:22.959Z,54.06
2024-03-02T15:52:50.714Z,54.45
2024-03-02T15:55:18.518Z,53.84
2024-03-02T15:57:46.407Z,54.42
2024-03-02T16:00:15.084Z,54.02
2024-03-02T16:02:42.860Z,55.27
2024-03-02T16:05:10.855Z,55.08
2024-03-02T16:07:39.953Z,55.06
2024-03-02T16:10:09.048Z,55.42
2024-03-02T16:12:36.899Z,54.99
2024-03-02T16:15:05.293Z,55.83
2024-03-02T16:17:33.078Z,55.86
2024-03-02T16:20:00.787Z,55.85
2024-03-02T16:22:28.557Z,56.31
2024-03-02T16:24:57.656Z,56.94
2024-03-02T16:27:25.731Z,57.05
2024-03-02T16:29:55.498Z,57.19
2024-03-02T16:32:23.237Z,57.36
2024-03-02T16:34:51.575Z,57.34
2024-03-02T16:37:20.601Z,57.89
2024-03-02T16:39:49.701Z,58.22
2024-03-02T16:42:21.075Z,57.67
2024-03-02T16:44:49.522Z,58.10
2024-03-02T16:47:17.395Z,57.70
2024-03-02T16:49:46.385Z,58.17
2024-03-02T16:52:15.998Z,57.79
2024-03-02T16:54:43.857Z,57.71
2024-03-02T16:57:12.590Z,57.85
2024-03-02T16:59:44.099Z,58.12
2024-03-02T17:02:12.216Z,57.73
2024-03-02T17:04:40.057Z,57.77
2024-03-02T17:07:08.030Z,57.85
2024-03-02T17:09:36.085Z,58.13
2024-03-02T17:12:05.584Z,58.15
2024-03-02T17:14:33.284Z,58.70
2024-03-02T17:17:02.493Z,58.60
2024-03-02T17:19:30.431Z,58.43
2024-03-02T17:21:58.321Z,58.62
2024-03-02T17:24:26.168Z,58.62
2024-03-02T17:26:53.918Z,58.31
2024-03-02T17:30:28.893Z,59.11
2024-03-02T17:32:56.596Z,59.08
2024-03-02T17:36:45.762Z,58.99
2024-03-02T17:39:13.499Z,58.74
2024-03-02T17:41:41.230Z,58.99
2024-03-02T17:44:10.336Z,59.01
2024-03-02T17:46:38.016Z,59.04
2024-03-02T17:49:05.764Z,59.31
2024-03-02T17:51:33.596Z,59.78
2024-03-02T17:54:02.749Z,59.63
2024-03-02T17:56:31.479Z,59.51
2024-03-02T17:58:59.625Z,59.95
2024-03-02T18:01:27.398Z,59.77
2024-03-02T18:03:55.144Z,59.47
2024-03-02T18:06:23.066Z,59.43
2024-03-02T18:08:51.062Z,59.89
2024-03-02T18:11:20.608Z,59.75
2024-03-02T18:13:48.396Z,59.78
2024-03-02T18:16:16.747Z,59.98
2024-03-02T18:18:44.609Z,60.39
2024-03-02T18:21:12.404Z,60.04
2024-03-02T18:23:40.081Z,60.35
2024-03-02T18:26:07.813Z,60.61
2024-03-02T18:28:39.150Z,60.52
2024-03-02T18:31:08.436Z,60.78
2024-03-02T18:33:38.548Z,60.56
2024-03-02T18:36:07.435Z,60.78
2024-03-02T18:38:35.177Z,60.59
2024-03-02T18:41:02.916Z,60.34
2024-03-02T18:43:30.627Z,61.35
2024-03-02T18:46:00.926Z,61.10
2024-03-02T18:48:28.988Z,61.11
2024-03-02T18:50:56.806Z,60.98
2024-03-02T18:53:24.523Z,60.85
2024-03-02T18:55:53.101Z,61.02
2024-03-02T18:58:21.179Z,60.81
2024-03-02T19:00:49.130Z,61.60
2024-03-02T19:03:18.274Z,61.58
2024-03-02T19:05:46.028Z,61.40
2024-03-02T19:08:18.601Z,61.58
2024-03-02T19:10:46.361Z,61.36
2024-03-02T19:13:14.084Z,61.50
2024-03-02T19:15:41.934Z,61.19
2024-03-02T19:18:09.853Z,61.58
2024-03-02T19:20:41.586Z,61.51
2024-03-02T19:23:14.720Z,61.51
2024-03-02T19:25:46.044Z,61.63
2024-03-02T19:28:14.433Z,61.70
2024-03-02T19:30:44.985Z,61.66
2024-03-02T19:33:15.537Z,62.31
2024-03-02T19:35:44.679Z,61.93
2024-03-02T19:38:13.883Z,62.14
2024-03-02T19:40:41.720Z,61.90
2024-03-02T19:43:09.567Z,62.37
2024-03-02T19:45:37.368Z,62.35
2024-03-02T19:48:05.359Z,62.40
2024-03-02T19:50:33.252Z,62.33
2024-03-02T19:53:03.900Z,62.15
2024-03-02T19:55:31.686Z,62.39
2024-03-02T19:57:59.441Z,62.45
2024-03-02T20:00:28.325Z,62.49
2024-03-02T20:02:56.137Z,62.52
2024-03-02T20:05:25.343Z,62.44
2024-03-02T20:07:53.036Z,62.64
2024-03-02T20:10:22.326Z,62.13
2024-03-02T20:12:50.131Z,62.97
2024-03-02T20:15:19.874Z,62.77
2024-03-02T20:17:48.421Z,62.58
2024-03-02T20:20:16.936Z,62.38
2024-03-02T20:22:44.776Z,62.50
2024-03-02T20:25:14.166Z,62.52
2024-03-02T20:27:44.607Z,62.42
2024-03-02T20:30:14.064Z,62.43
2024-03-02T20:32:41.920Z,62.39
2024-03-02T20:35:12.704Z,62.78
2024-03-02T20:37:41.103Z,62.77
2024-03-02T20:40:10.037Z,62.48
2024-03-02T20:42:38.558Z,62.85
2024-03-02T20:45:08.657Z,63.16
2024-03-02T20:47:36.422Z,62.49
2024-03-02T20:50:04.376Z,62.93
2024-03-02T20:52:32.154Z,63.00
2024-03-02T20:54:59.947Z,62.84
2024-03-02T20:57:27.663Z,62.46
2024-03-02T20:59:55.951Z,62.63
2024-03-02T21:02:25.321Z,62.59
2024-03-02T21:04:53.073Z,62.62
2024-03-02T21:07:21.815Z,62.48
2024-03-02T21:09:49.730Z,62.90
2024-03-02T21:12:17.520Z,62.61
2024-03-02T21:14:45.254Z,62.77
2024-03-02T21:17:12.999Z,62.98
2024-03-02T21:19:42.037Z,62.88
2024-03-02T21:22:09.822Z,62.63
2024-03-02T21:24:38.248Z,62.83
2024-03-02T21:27:07.800Z,63.39
2024-03-02T21:29:35.685Z,62.91
2024-03-02T21:32:03.450Z,62.73
2024-03-02T21:34:31.151Z,63.01
2024-03-02T21:37:00.218Z,63.13
2024-03-02T21:39:35.968Z,62.95
2024-03-02T21:42:07.993Z,63.13
2024-03-02T21:44:35.689Z,63.34
2024-03-02T21:47:06.853Z,63.56
2024-03-02T21:49:35.000Z,63.19
2024-03-02T21:52:04.644Z,63.42
2024-03-02T21:54:33.316Z,63.65
2024-03-02T21:57:03.483Z,63.67
2024-03-02T21:59:31.564Z,63.57
2024-03-02T22:01:59.564Z,63.45
2024-03-02T22:04:27.393Z,63.75
2024-03-02T22:06:55.559Z,63.57
2024-03-02T22:09:24.770Z,63.70
2024-03-02T22:11:52.513Z,63.72
2024-03-02T22:14:22.013Z,63.94
2024-03-02T22:16:49.774Z,63.95
2024-03-02T22:19:17.539Z,63.85
2024-03-02T22:21:45.392Z,64.18
2024-03-02T22:24:14.817Z,64.64
2024-03-02T22:26:43.956Z,64.55
2024-03-02T22:29:11.747Z,64.81
2024-03-02T22:31:39.553Z,64.51
2024-03-02T22:34:07.411Z,64.53
2024-03-02T22:36:35.248Z,64.64
2024-03-02T22:39:03.009Z,65.08
2024-03-02T22:41:30.778Z,65.09
2024-03-02T22:44:00.325Z,65.27
2024-03-02T22:46:28.110Z,65.38
2024-03-02T22:48:56.272Z,65.20
2024-03-02T22:51:24.345Z,65.01
2024-03-02T22:53:52.158Z,65.50
2024-03-02T22:56:20.844Z,65.79
2024-03-02T22:58:48.535Z,65.87
2024-03-02T23:01:21.428Z,65.63
2024-03-02T23:03:49.395Z,65.87
2024-03-02T23:06:17.181Z,65.65
2024-03-02T23:08:45.399Z,66.01
2024-03-02T23:11:13.415Z,66.31
2024-03-02T23:13:41.778Z,66.10
2024-03-02T23:16:10.059Z,66.30
2024-03-02T23:18:39.371Z,66.23
2024-03-02T23:21:07.824Z,66.83
2024-03-02T23:23:35.582Z,66.46
2024-03-02T23:26:03.797Z,66.67
2024-03-02T23:28:31.522Z,67.12
2024-03-02T23:30:59.840Z,67.14
2024-03-02T23:33:27.628Z,66.62
2024-03-02T23:35:56.778Z,66.63
2024-03-02T23:38:24.518Z,66.52
2024-03-02T23:41:08.986Z,66.89
2024-03-02T23:43:36.079Z,66.56
2024-03-02T23:46:03.825Z,66.79
2024-03-02T23:48:31.580Z,66.35
2024-03-02T23:51:00.903Z,66.89
2024-03-02T23:53:28.668Z,67.29
2024-03-02T23:55:57.727Z,66.99
2024-03-02T23:58:25.523Z,67.29
